Time;durP1;ratioP1;P1;durP2;ratioP2;P2;SDS_P1;SDS_P2;PMS_P1;PMS_P2;Temp;Humidity;BMP_temperature;BMP_pressure;BME280_temperature;BME280_humidity;BME280_pressure;Samples;Min_cycle;Max_cycle;Signal;HPM_P1;HPM_P2
2023/01/24 00:00:04;;;;;;;48.63;23.57;;;;;;;0.47;100.00;103059.52;5103873;56;1141047;-70
2023/01/24 00:05:11;;;;;;;47.47;22.53;;;;;;;0.40;100.00;103051.69;5124399;55;1140976;-70
2023/01/24 00:10:17;;;;;;;43.80;21.48;;;;;;;0.43;100.00;103057.78;5193805;55;1140810;-68
2023/01/24 00:15:23;;;;;;;57.93;24.72;;;;;;;0.40;100.00;103051.69;5166030;54;1140819;-68
2023/01/24 00:20:29;;;;;;;41.47;22.90;;;;;;;0.42;100.00;103058.64;5138999;55;1141124;-70
2023/01/24 00:25:35;;;;;;;50.40;22.77;;;;;;;0.39;100.00;103052.55;5096517;56;1140970;-71
2023/01/24 00:30:41;;;;;;;42.57;21.13;;;;;;;0.38;100.00;103058.17;5096937;55;1140961;-73
2023/01/24 00:35:46;;;;;;;51.03;24.73;;;;;;;0.37;100.00;103060.77;5107449;55;1141002;-73
2023/01/24 00:40:53;;;;;;;49.97;23.50;;;;;;;0.37;100.00;103065.97;5098632;54;1140906;-71
2023/01/24 00:45:59;;;;;;;48.13;24.77;;;;;;;0.39;100.00;103061.66;5190837;54;1140921;-73
2023/01/24 00:51:06;;;;;;;43.40;22.23;;;;;;;0.40;100.00;103068.60;5219323;54;1140803;-68
2023/01/24 00:56:11;;;;;;;54.57;24.73;;;;;;;0.42;100.00;103064.28;5198934;54;1141477;-71
2023/01/24 01:01:18;;;;;;;47.23;24.17;;;;;;;0.35;100.00;103065.53;5167151;54;1140975;-73
2023/01/24 01:06:24;;;;;;;48.60;23.97;;;;;;;0.33;100.00;103062.48;5096581;55;1141043;-71
2023/01/24 01:11:30;;;;;;;54.77;24.77;;;;;;;0.33;100.00;103065.08;5033412;56;1141027;-69
2023/01/24 01:16:37;;;;;;;47.67;24.67;;;;;;;0.40;100.00;103067.30;5011281;56;1141286;-69
2023/01/24 01:21:44;;;;;;;49.33;24.80;;;;;;;0.47;100.00;103065.15;4946608;57;1140868;-70
2023/01/24 01:26:50;;;;;;;49.03;24.90;;;;;;;0.47;100.00;103065.15;4977951;57;1140918;-69
2023/01/24 01:31:56;;;;;;;53.37;24.80;;;;;;;0.45;100.00;103061.70;4926204;57;1141008;-68
2023/01/24 01:37:02;;;;;;;54.33;25.27;;;;;;;0.41;100.00;103066.44;4945955;56;1140973;-73
2023/01/24 01:42:07;;;;;;;48.83;26.47;;;;;;;0.39;100.00;103057.32;4948928;57;1140868;-68
2023/01/24 01:47:31;;;;;;;49.10;23.70;;;;;;;0.45;100.00;103056.06;5152262;55;1141089;-69
2023/01/24 01:52:43;;;;;;;55.92;27.07;;;;;;;0.45;100.00;103060.39;5115994;55;1141077;-70
2023/01/24 01:57:52;;;;;;;53.23;26.57;;;;;;;0.42;100.00;103066.45;5110880;56;1140737;-69
2023/01/24 02:03:50;;;;;;;56.00;26.47;;;;;;;0.44;100.00;103060.83;5095155;56;1140809;-71
2023/01/24 02:08:13;;;;;;;48.03;26.43;;;;;;;0.46;100.00;103055.62;5062129;56;1140857;-72
2023/01/24 02:13:19;;;;;;;49.90;24.32;;;;;;;0.46;100.00;103062.98;5106672;56;1140953;-69
2023/01/24 02:18:25;;;;;;;55.10;28.23;;;;;;;0.45;100.00;103054.76;5086105;56;1140874;-69
2023/01/24 02:23:53;;;;;;;49.58;25.27;;;;;;;0.45;100.00;103061.70;5162954;55;1140899;-70
2023/01/24 02:29:06;;;;;;;61.28;30.05;;;;;;;0.47;100.00;103054.30;5172137;55;1140918;-71
2023/01/24 02:34:12;;;;;;;47.50;22.50;;;;;;;0.44;100.00;103059.52;5194237;55;1140966;-71
2023/01/24 02:39:26;;;;;;;61.70;26.37;;;;;;;0.37;100.00;103051.66;5170202;55;1141028;-71
2023/01/24 02:44:46;;;;;;;54.40;25.60;;;;;;;0.33;100.00;103056.84;5172219;56;1140966;-69
2023/01/24 02:49:51;;;;;;;53.17;28.33;;;;;;;0.35;100.00;103062.93;5160846;56;1141025;-70
2023/01/24 02:54:58;;;;;;;58.70;27.90;;;;;;;0.38;100.00;103063.39;5180000;56;1140923;-67
2023/01/24 03:00:07;;;;;;;54.27;26.77;;;;;;;0.40;100.00;103063.39;5172247;55;1140847;-72
2023/01/24 03:05:14;;;;;;;59.17;30.40;;;;;;;0.42;100.00;103071.66;5172454;55;1140839;-69
2023/01/24 03:10:21;;;;;;;55.40;28.62;;;;;;;0.41;100.00;103080.33;5192639;55;1140753;-73
2023/01/24 03:37:07;;;;;;;54.93;28.63;;;;;;;0.45;100.00;103083.39;5249852;54;1140958;-71
2023/01/24 03:42:13;;;;;;;51.70;27.60;;;;;;;0.43;100.00;103074.70;5223513;55;1140822;-72
2023/01/24 03:47:19;;;;;;;51.42;27.98;;;;;;;0.35;100.00;103072.47;5260116;54;1140740;-67
2023/01/24 03:52:28;;;;;;;57.38;26.07;;;;;;;0.35;100.00;103072.47;5198042;54;1140734;-75
2023/01/24 03:57:33;;;;;;;49.90;25.10;;;;;;;0.38;100.00;103072.92;5229182;54;1140863;-69
2023/01/24 04:02:40;;;;;;;53.60;24.23;;;;;;;0.36;100.00;103072.91;5210601;54;1140882;-74
2023/01/24 04:07:46;;;;;;;47.57;22.77;;;;;;;0.35;100.00;103062.93;5183121;55;1140880;-70
2023/01/24 04:12:55;;;;;;;52.70;25.50;;;;;;;0.33;100.00;103061.17;5141500;55;1141280;-69
2023/01/24 04:18:04;;;;;;;49.10;24.23;;;;;;;0.25;100.00;103056.38;5203504;55;1140797;-71
2023/01/24 04:23:12;;;;;;;47.87;25.53;;;;;;;0.21;100.00;103054.18;5185449;54;1140778;-75
2023/01/24 04:28:18;;;;;;;47.13;24.20;;;;;;;0.16;100.00;103052.40;5265630;54;1140872;-73
2023/01/24 04:33:23;;;;;;;47.00;25.63;;;;;;;0.14;100.00;103043.31;5041963;57;1140946;-70
2023/01/24 04:38:29;;;;;;;47.85;24.52;;;;;;;0.12;100.00;103037.23;5083570;55;1140995;-72
2023/01/24 04:43:43;;;;;;;50.60;24.90;;;;;;;0.12;100.00;103037.23;5104978;55;1140996;-73
2023/01/24 04:48:49;;;;;;;49.17;26.47;;;;;;;0.13;100.00;103040.70;5163427;55;1140736;-72
2023/01/24 04:53:56;;;;;;;44.93;23.03;;;;;;;0.16;100.00;103040.27;5186249;55;1141169;-71
2023/01/24 04:59:04;;;;;;;47.20;24.73;;;;;;;0.15;100.00;103042.88;5194736;55;1140819;-73
2023/01/24 05:04:10;;;;;;;47.03;23.33;;;;;;;0.13;100.00;103045.91;5215290;55;1140856;-69
2023/01/24 05:09:16;;;;;;;44.83;23.42;;;;;;;0.16;100.00;103052.40;5195050;55;1140799;-71
2023/01/24 05:14:27;;;;;;;52.90;27.25;;;;;;;0.20;100.00;103061.98;5174076;55;1140869;-70
2023/01/24 05:19:32;;;;;;;53.65;26.70;;;;;;;0.20;100.00;103073.69;5107999;55;1140825;-71
2023/01/24 05:24:38;;;;;;;47.77;22.87;;;;;;;0.22;100.00;103076.74;5127649;56;1140929;-76
2023/01/24 05:29:44;;;;;;;38.67;21.70;;;;;;;0.22;100.00;103074.57;5107794;56;1140897;-73
2023/01/24 05:34:51;;;;;;;48.37;23.70;;;;;;;0.19;100.00;103065.44;5107632;56;1140806;-75
2023/01/24 05:39:59;;;;;;;48.87;23.10;;;;;;;0.18;100.00;103067.59;5127546;55;1141007;-74
2023/01/24 05:45:06;;;;;;;40.63;21.10;;;;;;;0.14;100.00;103068.46;5150146;55;1140927;-69
2023/01/24 05:50:13;;;;;;;48.80;23.93;;;;;;;0.10;100.00;103071.47;5194284;55;1140821;-69
2023/01/24 05:55:19;;;;;;;49.57;23.03;;;;;;;0.06;100.00;103082.70;5214985;55;1140904;-71
2023/01/24 06:00:27;;;;;;;44.97;23.83;;;;;;;0.04;100.00;103083.55;5194474;55;1140980;-73
2023/01/24 06:05:50;;;;;;;45.27;22.37;;;;;;;0.05;100.00;103089.20;5159090;55;1141096;-72
2023/01/24 06:10:58;;;;;;;53.20;24.73;;;;;;;0.07;100.00;103092.69;5194319;55;1140948;-69
2023/01/24 06:16:14;;;;;;;47.60;23.17;;;;;;;0.09;100.00;103097.05;5165350;55;1140995;-71
2023/01/24 06:21:49;;;;;;;46.20;21.33;;;;;;;0.15;100.00;103103.61;5107606;55;1146893;-73
2023/01/24 06:26:57;;;;;;;47.40;24.13;;;;;;;0.16;100.00;103104.44;5102793;56;1140864;-75
2023/01/24 06:32:28;;;;;;;49.77;25.00;;;;;;;0.11;100.00;103101.83;5083146;56;1141046;-72
2023/01/24 06:37:49;;;;;;;46.37;24.67;;;;;;;0.12;100.00;103107.91;5129056;54;1140947;-71
2023/01/24 06:42:56;;;;;;;42.80;22.93;;;;;;;0.10;100.00;103107.02;5295238;54;1140775;-72
2023/01/24 06:48:01;;;;;;;38.50;20.77;;;;;;;0.09;100.00;103112.66;5274232;54;1140914;-72
2023/01/24 06:53:14;;;;;;;41.17;21.17;;;;;;;0.08;100.00;103113.94;5221756;54;1140820;-72
2023/01/24 06:58:14;;;;;;;39.30;20.20;;;;;;;0.11;100.00;103123.08;5196092;55;1140894;-73
2023/01/24 07:03:20;;;;;;;37.67;20.53;;;;;;;0.14;100.00;103128.31;5136309;55;1141072;-67
2023/01/24 07:08:26;;;;;;;37.23;19.30;;;;;;;0.15;100.00;103132.23;5105930;55;1140946;-75
2023/01/24 07:13:32;;;;;;;38.17;20.70;;;;;;;0.15;100.00;103136.56;5112971;55;1140938;-72
2023/01/24 07:18:39;;;;;;;39.00;20.00;;;;;;;0.11;100.00;103141.29;5195544;55;1140816;-70
2023/01/24 07:23:51;;;;;;;35.90;18.33;;;;;;;0.12;100.00;103137.41;5116231;55;1140825;-69
2023/01/24 07:28:56;;;;;;;41.87;19.90;;;;;;;0.16;100.00;103141.75;5108386;55;1140929;-71
2023/01/24 07:34:02;;;;;;;34.57;18.87;;;;;;;0.15;100.00;103159.55;5123846;55;1140839;-72
2023/01/24 07:39:08;;;;;;;43.10;19.90;;;;;;;0.18;100.00;103153.05;5148424;55;1140963;-70
2023/01/24 07:44:14;;;;;;;36.07;19.87;;;;;;;0.23;100.00;103151.36;5211367;54;1141069;-69
2023/01/24 07:49:20;;;;;;;32.47;17.83;;;;;;;0.28;100.00;103156.17;5078437;57;1140727;-71
2023/01/24 07:54:27;;;;;;;32.05;17.95;;;;;;;0.31;100.00;103157.47;5080508;55;1140833;-73
2023/01/24 07:59:33;;;;;;;32.15;17.32;;;;;;;0.29;100.00;103152.72;5141455;55;1141120;-73
2023/01/24 08:04:40;;;;;;;30.23;16.23;;;;;;;0.30;100.00;103153.59;5139597;55;1140976;-71
2023/01/24 08:09:48;;;;;;;33.67;17.30;;;;;;;0.30;100.00;103153.16;5152806;55;1141285;-72
2023/01/24 08:14:55;;;;;;;28.97;16.20;;;;;;;0.35;100.00;103157.94;5104899;55;1140875;-73
2023/01/24 08:20:01;;;;;;;36.23;17.97;;;;;;;0.38;100.00;103161.00;5139378;55;1141038;-68
2023/01/24 08:25:07;;;;;;;32.93;17.23;;;;;;;0.40;100.00;103161.02;5161005;55;1140920;-71
2023/01/24 08:30:14;;;;;;;33.37;17.13;;;;;;;0.46;100.00;103158.00;5112529;55;1140887;-69
2023/01/24 08:35:19;;;;;;;33.13;17.33;;;;;;;0.46;100.00;103149.35;5088633;55;1140932;-72
2023/01/24 08:40:26;;;;;;;37.75;16.07;;;;;;;0.49;100.00;103147.61;5070422;56;1141050;-72
2023/01/24 08:45:32;;;;;;;36.65;18.70;;;;;;;0.52;100.00;103148.94;5120436;55;1255049;-74
2023/01/24 08:50:38;;;;;;;29.90;15.77;;;;;;;0.45;100.00;103150.21;5115328;55;1140861;-69
2023/01/24 08:55:43;;;;;;;31.48;15.88;;;;;;;0.41;100.00;103157.12;5127185;55;1141022;-69
2023/01/24 09:00:49;;;;;;;33.17;16.93;;;;;;;0.45;100.00;103158.89;5064470;56;1140796;-72
2023/01/24 09:05:59;;;;;;;29.30;14.70;;;;;;;0.49;100.00;103166.27;5060100;57;1141007;-72
2023/01/24 09:11:05;;;;;;;30.20;17.17;;;;;;;0.49;100.00;103170.17;5054479;57;1140951;-71
2023/01/24 09:16:10;;;;;;;30.20;15.93;;;;;;;0.48;100.00;103174.94;4950753;57;1140883;-67
2023/01/24 09:21:17;;;;;;;32.77;16.47;;;;;;;0.48;100.00;103178.84;4951647;57;1141072;-69
2023/01/24 09:26:24;;;;;;;46.25;21.55;;;;;;;0.51;100.00;103191.45;4887310;58;1140958;-69
2023/01/24 09:31:30;;;;;;;42.17;21.10;;;;;;;0.52;100.00;103190.59;5059191;56;1140925;-71
2023/01/24 09:36:36;;;;;;;47.98;22.52;;;;;;;0.56;100.00;103197.58;5075048;56;1140914;-67
2023/01/24 09:42:31;;;;;;;47.10;22.23;;;;;;;0.57;100.00;103201.92;4945574;57;1140968;-68
2023/01/24 09:47:44;;;;;;;52.17;24.90;;;;;;;0.61;100.00;103210.17;4960172;56;1141210;-65
2023/01/24 09:52:54;;;;;;;49.37;23.47;;;;;;;0.65;100.00;103217.16;5010805;56;1140807;-68
2023/01/24 09:58:08;;;;;;;44.03;21.90;;;;;;;0.65;100.00;103211.08;5167441;56;1140784;-69
2023/01/24 10:03:20;;;;;;;44.70;22.83;;;;;;;0.63;100.00;103207.59;5160185;56;1140800;-69
2023/01/24 10:08:36;;;;;;;41.98;21.02;;;;;;;0.66;100.00;103205.88;5143911;56;1140970;-69
2023/01/24 10:13:53;;;;;;;38.70;20.08;;;;;;;0.68;100.00;103205.46;5082073;56;1141095;-70
2023/01/24 10:19:32;;;;;;;46.58;21.82;;;;;;;0.72;100.00;103185.53;5180774;56;1140796;-70
2023/01/24 10:24:42;;;;;;;41.13;21.12;;;;;;;0.73;100.00;103183.80;5075385;56;1140856;-68
2023/01/24 10:29:53;;;;;;;33.77;18.13;;;;;;;0.75;100.00;103179.03;5062941;55;1140939;-68
2023/01/24 10:35:04;;;;;;;37.75;20.23;;;;;;;0.83;100.00;103175.16;5114483;55;1141029;-69
2023/01/24 10:40:15;;;;;;;32.47;16.13;;;;;;;0.87;100.00;103170.41;5098619;55;1140984;-68
2023/01/24 10:45:57;;;;;;;31.20;17.98;;;;;;;0.94;100.00;103169.13;5163945;55;1141317;-67
2023/01/24 10:51:21;;;;;;;39.17;19.87;;;;;;;1.01;100.00;103174.82;5192055;55;1141081;-70
2023/01/24 10:56:27;;;;;;;25.85;13.95;;;;;;;1.05;100.00;103167.46;5135736;55;1140921;-72
2023/01/24 11:01:40;;;;;;;28.87;15.77;;;;;;;1.12;100.00;103167.47;5216437;55;1140895;-72
2023/01/24 11:06:49;;;;;;;45.28;23.45;;;;;;;1.14;100.00;103165.74;5216471;55;1140937;-71
2023/01/24 11:11:58;;;;;;;30.30;17.57;;;;;;;1.20;100.00;103158.83;5236764;55;1140840;-68
2023/01/24 11:17:07;;;;;;;30.93;16.13;;;;;;;1.26;100.00;103164.04;5139547;55;1141027;-71
2023/01/24 11:22:33;;;;;;;25.27;14.47;;;;;;;1.27;100.00;103150.14;5114133;56;1140739;-70
2023/01/24 11:27:39;;;;;;;25.15;15.13;;;;;;;1.28;100.00;103154.92;5111208;56;1140968;-70
2023/01/24 11:33:13;;;;;;;29.30;16.13;;;;;;;1.24;100.00;103147.95;5127856;55;1140788;-69
2023/01/24 11:38:29;;;;;;;31.55;16.10;;;;;;;1.26;100.00;103134.49;5005297;57;1140915;-68
2023/01/24 11:44:16;;;;;;;25.90;14.50;;;;;;;1.35;100.00;103130.20;5006223;57;1140876;-68
2023/01/24 11:49:42;;;;;;;28.30;14.68;;;;;;;1.45;100.00;103131.50;4997615;57;1140947;-68
2023/01/24 11:55:11;;;;;;;26.87;15.33;;;;;;;1.52;100.00;103116.32;4980132;57;1140948;-67
2023/01/24 12:00:44;;;;;;;27.07;13.47;;;;;;;1.52;100.00;103121.53;5048766;57;1140971;-67
2023/01/24 12:06:08;;;;;;;27.13;14.80;;;;;;;1.57;100.00;103118.05;5029214;57;1140936;-69
2023/01/24 12:11:38;;;;;;;27.17;15.40;;;;;;;1.60;100.00;103118.48;5104833;54;1140816;-68
2023/01/24 12:17:18;;;;;;;25.53;14.40;;;;;;;1.60;100.00;103110.66;5108052;55;1140991;-67
2023/01/24 12:22:32;;;;;;;28.23;15.67;;;;;;;1.64;100.00;103110.67;4902388;58;1140942;-70
2023/01/24 12:27:37;;;;;;;27.67;15.43;;;;;;;1.71;100.00;103091.97;4917849;58;1140911;-69
2023/01/24 12:32:50;;;;;;;25.67;14.33;;;;;;;1.74;100.00;103099.37;4932795;57;1162295;-67
2023/01/24 12:38:16;;;;;;;25.50;13.53;;;;;;;1.68;100.00;103095.91;5029639;57;1141017;-68
2023/01/24 12:43:34;;;;;;;34.53;17.43;;;;;;;1.64;100.00;103116.33;5000752;57;1141081;-67
2023/01/24 12:48:56;;;;;;;47.10;26.02;;;;;;;1.62;100.00;103109.80;5090084;56;1141187;-68
2023/01/24 12:54:25;;;;;;;25.37;15.03;;;;;;;1.62;100.00;103107.63;5108169;55;1141090;-71
2023/01/24 12:59:33;;;;;;;37.00;18.07;;;;;;;1.59;100.00;103109.80;5109578;55;1141068;-69
2023/01/24 13:05:07;;;;;;;31.97;18.10;;;;;;;1.60;100.00;103112.84;5129298;55;1140807;-70
2023/01/24 13:10:44;;;;;;;28.30;14.30;;;;;;;1.63;100.00;103113.28;5150900;54;1140711;-70
2023/01/24 13:16:10;;;;;;;27.03;14.83;;;;;;;1.60;100.00;103110.66;5221517;54;1140740;-67
2023/01/24 13:21:44;;;;;;;27.20;13.87;;;;;;;1.55;100.00;103104.13;5284959;54;1140827;-71
2023/01/24 13:27:22;;;;;;;25.60;15.83;;;;;;;1.56;100.00;103100.66;5281002;54;1140841;-69
2023/01/24 13:32:29;;;;;;;24.70;14.10;;;;;;;1.55;100.00;103098.04;5305940;54;1147744;-68
2023/01/24 13:37:37;;;;;;;27.57;14.10;;;;;;;1.47;100.00;103099.35;5276444;54;1140997;-74
2023/01/24 13:42:43;;;;;;;25.80;14.87;;;;;;;1.49;100.00;103096.75;5083462;57;1140947;-69
2023/01/24 13:47:49;;;;;;;72.13;41.50;;;;;;;1.46;100.00;103096.73;5292993;54;1140910;-69
2023/01/24 13:53:00;;;;;;;38.43;20.30;;;;;;;1.46;100.00;103092.83;5059329;56;1141015;-68
2023/01/24 13:58:13;;;;;;;30.73;15.83;;;;;;;1.44;100.00;103090.22;5274429;54;1140858;-68
2023/01/24 14:03:33;;;;;;;;;;;;;;;1.44;100.00;103088.91;5298913;54;1140864;-75
2023/01/24 14:08:46;;;;;;;38.57;20.67;;;;;;;1.46;100.00;103086.31;5241029;54;974077;-73
2023/01/24 14:13:56;;;;;;;63.85;28.02;;;;;;;1.44;100.00;103074.57;5183088;55;1139056;-69
2023/01/24 14:19:14;;;;;;;49.45;30.40;;;;;;;1.45;100.00;103076.75;5288116;54;1140792;-72
2023/01/24 14:24:30;;;;;;;204.75;90.65;;;;;;;1.36;100.00;103073.70;5182628;55;1140893;-69
2023/01/24 14:29:41;;;;;;;131.23;56.70;;;;;;;1.29;100.00;103074.55;5000300;57;1142983;-69
2023/01/24 14:34:52;;;;;;;38.78;20.32;;;;;;;1.30;100.00;103080.20;5181998;55;1142939;-72
2023/01/24 14:40:22;;;;;;;28.30;16.83;;;;;;;1.25;100.00;103070.19;5256935;54;1140898;-69
2023/01/24 14:45:31;;;;;;;30.13;17.43;;;;;;;1.25;100.00;103073.67;5083526;56;1141055;-68
2023/01/24 14:50:39;;;;;;;35.80;22.57;;;;;;;1.27;100.00;103064.12;5027548;56;1140922;-67
2023/01/24 14:55:45;;;;;;;29.23;16.85;;;;;;;1.28;100.00;103061.08;5016634;56;1141039;-71
2023/01/24 15:00:54;;;;;;;30.27;17.20;;;;;;;1.20;100.00;103062.81;5120944;55;1140750;-70
2023/01/24 15:06:07;;;;;;;27.77;16.10;;;;;;;1.14;100.00;103061.48;5129343;55;1140867;-71
2023/01/24 15:11:23;;;;;;;39.13;23.07;;;;;;;1.11;100.00;103058.87;5102406;55;1140843;-72
2023/01/24 15:16:40;;;;;;;75.63;33.43;;;;;;;1.05;100.00;103061.05;5136766;55;1140884;-71
2023/01/24 15:21:48;;;;;;;48.77;26.90;;;;;;;1.11;100.00;103062.34;5135817;55;1140777;-69
2023/01/24 15:26:56;;;;;;;37.30;20.63;;;;;;;1.10;100.00;103067.55;5123098;55;1140818;-71
2023/01/24 15:32:02;;;;;;;40.40;21.70;;;;;;;1.06;100.00;103068.00;5127449;56;1140747;-71
2023/01/24 15:37:12;;;;;;;64.60;28.20;;;;;;;1.03;100.00;103074.50;5107826;55;1140807;-73
2023/01/24 15:47:47;;;;;;;62.58;29.00;;;;;;;1.01;100.00;103077.10;5138187;55;1140877;-71
2023/01/24 15:53:22;;;;;;;64.13;30.13;;;;;;;1.03;100.00;103081.02;5139972;55;1140856;-67
2023/01/24 15:58:28;;;;;;;63.37;29.17;;;;;;;1.04;100.00;103081.02;5131354;55;1141032;-67
2023/01/24 16:03:34;;;;;;;61.93;28.33;;;;;;;1.01;100.00;103078.41;5123008;55;1140966;-71
2023/01/24 16:08:39;;;;;;;52.43;26.53;;;;;;;1.03;100.00;103077.11;5108301;56;1141069;-68
2023/01/24 16:13:55;;;;;;;54.93;26.73;;;;;;;1.02;100.00;103069.72;5176952;53;1140751;-71
2023/01/24 16:18:56;;;;;;;59.47;30.40;;;;;;;1.01;100.00;103077.53;5243521;54;1140913;-68
2023/01/24 16:24:02;;;;;;;69.67;37.63;;;;;;;1.01;100.00;103078.41;5200312;54;1140889;-66
2023/01/24 16:29:13;;;;;;;67.93;35.10;;;;;;;1.00;100.00;103062.33;5216306;54;1140932;-71
2023/01/24 16:34:19;;;;;;;74.42;37.13;;;;;;;1.04;100.00;103070.60;5196386;54;1140898;-71
2023/01/24 16:39:25;;;;;;;73.37;36.43;;;;;;;1.08;100.00;103063.64;5196458;54;1140900;-68
2023/01/24 16:44:34;;;;;;;62.73;31.73;;;;;;;1.07;100.00;103060.59;5221214;54;1140984;-70
2023/01/24 16:49:39;;;;;;;52.35;27.27;;;;;;;1.06;100.00;103053.67;5230278;55;1140896;-73
2023/01/24 16:54:45;;;;;;;50.40;27.77;;;;;;;1.08;100.00;103049.73;5297361;54;1140932;-73
2023/01/24 16:59:51;;;;;;;58.53;29.90;;;;;;;1.06;100.00;103040.64;5292732;54;1141099;-71
2023/01/24 17:04:57;;;;;;;48.53;26.63;;;;;;;1.03;100.00;103046.70;5253405;54;1141350;-66
2023/01/24 17:10:02;;;;;;;54.67;26.93;;;;;;;0.98;100.00;103044.52;5280202;54;1140867;-69
2023/01/24 17:15:09;;;;;;;57.00;27.60;;;;;;;0.93;100.00;103047.96;5199841;54;1140936;-69
2023/01/24 17:20:15;;;;;;;123.60;49.40;;;;;;;0.94;100.00;103045.80;5186999;55;1140780;-69
2023/01/24 17:25:21;;;;;;;133.37;60.63;;;;;;;0.93;100.00;103048.83;5155524;55;1143168;-67
2023/01/24 17:30:27;;;;;;;182.77;78.87;;;;;;;0.95;100.00;103047.11;5139658;55;1143307;-71
2023/01/24 17:35:33;;;;;;;73.03;36.20;;;;;;;1.01;100.00;103049.73;5148491;55;1143220;-73
2023/01/24 17:40:39;;;;;;;75.40;36.37;;;;;;;0.96;100.00;103050.16;5174763;55;1141113;-71
2023/01/24 17:45:55;;;;;;;75.40;36.77;;;;;;;0.94;100.00;103056.22;5146170;55;1141018;-68
2023/01/24 17:51:07;;;;;;;74.03;36.37;;;;;;;0.96;100.00;103058.40;5124680;55;1140972;-70
2023/01/24 17:56:16;;;;;;;85.83;41.63;;;;;;;0.99;100.00;103048.86;5146005;55;1140917;-70
2023/01/24 18:01:23;;;;;;;89.07;42.83;;;;;;;1.00;100.00;103053.21;5134172;55;1140962;-73
2023/01/24 18:06:29;;;;;;;78.77;40.93;;;;;;;0.96;100.00;103055.80;5149292;55;1141024;-68
2023/01/24 18:11:36;;;;;;;104.95;49.15;;;;;;;0.97;100.00;103061.02;5147224;55;1231128;-71
2023/01/24 18:16:42;;;;;;;126.73;56.03;;;;;;;0.98;100.00;103062.75;5168962;55;1143051;-72
2023/01/24 18:21:47;;;;;;;215.50;85.17;;;;;;;0.95;100.00;103065.34;5146707;55;1142997;-72
2023/01/24 18:26:54;;;;;;;99.90;46.73;;;;;;;0.95;100.00;103070.98;5152583;55;1143128;-67
2023/01/24 18:32:01;;;;;;;111.67;48.53;;;;;;;0.91;100.00;103062.75;5167956;55;1140746;-72
2023/01/24 18:37:07;;;;;;;110.60;47.03;;;;;;;0.90;100.00;103061.01;5142515;55;1142894;-67
2023/01/24 18:42:13;;;;;;;90.00;44.70;;;;;;;0.87;100.00;103065.77;5188821;55;1143050;-72
2023/01/24 18:47:19;;;;;;;98.97;44.23;;;;;;;0.87;100.00;103064.47;5123589;55;1140974;-70
2023/01/24 18:52:25;;;;;;;107.93;48.83;;;;;;;0.89;100.00;103066.65;5124265;55;1140922;-68
2023/01/24 18:57:31;;;;;;;75.20;38.73;;;;;;;0.88;100.00;103055.79;5118601;55;1142995;-71
2023/01/24 19:02:38;;;;;;;93.35;42.75;;;;;;;0.88;100.00;103064.91;5119087;54;1141021;-69
2023/01/24 19:07:45;;;;;;;89.85;41.58;;;;;;;0.80;100.00;103057.91;5211367;55;1141018;-67
2023/01/24 19:12:53;;;;;;;74.37;38.03;;;;;;;0.77;100.00;103060.06;5151689;55;1140725;-70
2023/01/24 19:17:59;;;;;;;98.50;47.10;;;;;;;0.75;100.00;103057.92;5134079;55;1140890;-67
2023/01/24 19:23:06;;;;;;;98.97;49.25;;;;;;;0.78;100.00;103057.91;5118970;55;1141092;-71
2023/01/24 19:28:13;;;;;;;108.00;48.93;;;;;;;0.83;100.00;103057.93;5154636;54;1141020;-70
2023/01/24 19:33:20;;;;;;;99.63;45.97;;;;;;;0.83;100.00;103056.63;5197654;54;1142956;-69
2023/01/24 19:38:27;;;;;;;89.40;44.17;;;;;;;0.77;100.00;103060.06;5236956;54;1140737;-67
2023/01/24 19:43:35;;;;;;;92.33;42.17;;;;;;;0.80;100.00;103060.52;5191223;54;1140776;-70
2023/01/24 19:48:42;;;;;;;127.90;57.77;;;;;;;0.84;100.00;103063.58;5113225;55;1249115;-70
2023/01/24 19:53:50;;;;;;;229.00;81.65;;;;;;;0.87;100.00;103060.56;5108024;56;1251663;-67
2023/01/24 19:58:57;;;;;;;226.73;93.93;;;;;;;0.88;100.00;103054.91;5070657;56;1180290;-70
2023/01/24 20:04:03;;;;;;;143.87;62.53;;;;;;;0.85;100.00;103058.81;5068770;56;1249348;-69
2023/01/24 20:09:11;;;;;;;107.67;49.13;;;;;;;0.88;100.00;103065.34;5164881;55;1251026;-68
2023/01/24 20:14:18;;;;;;;95.83;43.23;;;;;;;0.90;100.00;103067.52;5186348;55;1142838;-69
2023/01/24 20:19:24;;;;;;;143.80;60.80;;;;;;;0.82;100.00;103068.78;5160553;55;1140873;-71
2023/01/24 20:24:31;;;;;;;120.20;53.85;;;;;;;0.69;100.00;103073.08;5050206;56;1262187;-69
2023/01/24 20:29:37;;;;;;;163.70;70.22;;;;;;;0.73;100.00;103071.36;5131617;54;1187990;-71
2023/01/24 20:34:45;;;;;;;166.82;67.25;;;;;;;0.76;100.00;103068.78;5158402;54;1142861;-69
2023/01/24 20:39:51;;;;;;;157.00;65.73;;;;;;;0.81;100.00;103065.73;5210235;55;1143744;-70
2023/01/24 20:44:57;;;;;;;181.83;80.50;;;;;;;0.81;100.00;103064.87;5186388;55;1258605;-68
2023/01/24 20:50:06;;;;;;;175.80;75.33;;;;;;;0.77;100.00;103057.47;5180394;54;1259217;-72
2023/01/24 20:55:13;;;;;;;194.47;76.30;;;;;;;0.80;100.00;103056.17;5214465;54;1260677;-68
2023/01/24 21:00:19;;;;;;;187.67;75.80;;;;;;;0.79;100.00;103045.32;5193550;54;1260247;-68
2023/01/24 21:05:25;;;;;;;146.90;61.40;;;;;;;0.81;100.00;103052.71;5135556;55;1159413;-72
2023/01/24 21:10:33;;;;;;;139.85;59.70;;;;;;;0.69;100.00;103053.98;5143463;56;1143751;-71
2023/01/24 21:15:40;;;;;;;132.70;55.97;;;;;;;0.68;100.00;103049.20;5142851;55;1152194;-70
2023/01/24 21:20:48;;;;;;;109.12;49.33;;;;;;;0.77;100.00;103050.08;5108004;55;1142968;-68
2023/01/24 21:25:55;;;;;;;90.00;43.40;;;;;;;0.79;100.00;103050.53;5109046;55;1143108;-69
2023/01/24 21:31:05;;;;;;;90.23;42.60;;;;;;;0.74;100.00;103040.98;5129159;55;1141121;-69
2023/01/24 21:36:18;;;;;;;98.87;47.27;;;;;;;0.65;100.00;103045.28;5109318;55;1141063;-71
2023/01/24 21:46:48;;;;;;;143.33;60.63;;;;;;;0.75;100.00;103044.03;5174709;55;1250923;-67
2023/01/24 21:51:58;;;;;;;122.53;52.73;;;;;;;0.79;100.00;103051.83;5185668;55;1159421;-68
2023/01/24 22:02:33;;;;;;;123.60;51.37;;;;;;;0.89;100.00;103039.30;5131129;55;1184363;-71
2023/01/24 22:07:39;;;;;;;115.80;52.67;;;;;;;0.89;100.00;103050.15;5136764;55;1143162;-71
2023/01/24 22:12:44;;;;;;;86.78;38.80;;;;;;;0.82;100.00;103038.83;5141702;55;1143043;-71
2023/01/24 22:17:50;;;;;;;85.00;38.50;;;;;;;0.70;100.00;103045.30;5121819;55;1141034;-68
2023/01/24 22:23:15;;;;;;;88.50;41.93;;;;;;;0.67;100.00;103037.04;5126827;55;1141074;-68
2023/01/24 22:28:23;;;;;;;99.67;41.23;;;;;;;0.72;100.00;103051.83;5142033;56;1140922;-69
2023/01/24 22:33:29;;;;;;;79.77;35.37;;;;;;;0.76;100.00;103054.88;5132534;55;1140784;-69
2023/01/24 22:38:35;;;;;;;93.57;40.27;;;;;;;0.80;100.00;103044.45;5111854;55;1140976;-71
2023/01/24 22:43:41;;;;;;;87.07;33.60;;;;;;;0.83;100.00;103030.15;5123939;55;1140969;-70
2023/01/24 22:48:46;;;;;;;79.00;34.50;;;;;;;0.80;100.00;103017.53;5229826;55;1141062;-70
2023/01/24 22:53:54;;;;;;;80.28;38.00;;;;;;;0.72;100.00;103010.16;5198559;55;1141113;-70
2023/01/24 22:59:00;;;;;;;61.33;29.30;;;;;;;0.67;100.00;103003.19;5182169;55;1141021;-70
2023/01/24 23:04:09;;;;;;;57.70;27.07;;;;;;;0.64;100.00;102995.36;5166474;55;1140801;-73
2023/01/24 23:09:15;;;;;;;40.67;17.57;;;;;;;0.66;100.00;102996.23;5090852;56;1140849;-67
2023/01/24 23:25:10;;;;;;;59.30;23.60;;;;;;;0.52;100.00;102949.76;5110122;55;1141366;-70
2023/01/24 23:30:24;;;;;;;38.97;17.83;;;;;;;0.49;100.00;102921.11;5108036;55;1141063;-72
2023/01/24 23:35:30;;;;;;;25.40;12.58;;;;;;;0.46;100.00;102922.86;5164229;55;1140874;-71
2023/01/24 23:40:37;;;;;;;25.97;12.73;;;;;;;0.39;100.00;102916.75;5153649;55;1140952;-69
2023/01/24 23:45:44;;;;;;;23.12;10.18;;;;;;;0.32;100.00;102909.34;5252728;54;1141047;-69